Lefor, North Dakota
Current Conditions -  °F | °C
As of 5:56 AM on Tuesday 21 Oct 2014 (Local Time) from KDIK Reporting Station
Clear Clear  
Wind Chill: 33°   Ceiling: Unl
Heat Index: 38°   Visibility: 10mi
Dew Point: 34°   Wind: 7mph
Humidity: 86%   Direction: 110°ESE
Pressure: 29.77"   Gusts: NA
Location:  46.69°N, 102.56°W
Report Text: KDIK 211156Z AUTO 11006KT 10SM CLR 03/01 A2977 RMK AO2 SLP086 T00330011 10100 20033 56008
Loading
Personal Weather Stations






























Interactive Weather Map
Tropical Storm Tracking
New forecast layout! Learn more

10-Day Weather Forecast

Advertisements
Track Severe Weather on mobile